sensor_id;sensor_type;location;lat;lon;timestamp;P1;durP1;ratioP1;P2;durP2;ratioP2
54555;SDS011;57291;37.520;15.106;2023-03-04T00:00:20;3.38;;;2.05;;
54555;SDS011;57291;37.520;15.106;2023-03-04T00:02:47;4.72;;;2.45;;
54555;SDS011;57291;37.520;15.106;2023-03-04T00:05:15;3.58;;;1.95;;
54555;SDS011;57291;37.520;15.106;2023-03-04T00:07:42;4.93;;;3.13;;
54555;SDS011;57291;37.520;15.106;2023-03-04T00:10:09;6.55;;;2.78;;
54555;SDS011;57291;37.520;15.106;2023-03-04T00:12:37;6.05;;;2.88;;
54555;SDS011;57291;37.520;15.106;2023-03-04T00:15:04;8.15;;;3.10;;
54555;SDS011;57291;37.520;15.106;2023-03-04T00:17:32;7.47;;;3.55;;
54555;SDS011;57291;37.520;15.106;2023-03-04T00:19:59;5.40;;;2.90;;
54555;SDS011;57291;37.520;15.106;2023-03-04T00:22:26;6.32;;;3.50;;
54555;SDS011;57291;37.520;15.106;2023-03-04T00:24:54;6.43;;;3.90;;
54555;SDS011;57291;37.520;15.106;2023-03-04T00:27:21;5.78;;;3.22;;
54555;SDS011;57291;37.520;15.106;2023-03-04T00:29:48;6.00;;;3.58;;
54555;SDS011;57291;37.520;15.106;2023-03-04T00:32:15;7.45;;;3.35;;
54555;SDS011;57291;37.520;15.106;2023-03-04T00:34:44;7.95;;;4.38;;
54555;SDS011;57291;37.520;15.106;2023-03-04T00:37:11;4.70;;;2.97;;
54555;SDS011;57291;37.520;15.106;2023-03-04T00:39:38;6.00;;;2.83;;
54555;SDS011;57291;37.520;15.106;2023-03-04T00:42:06;5.05;;;2.92;;
54555;SDS011;57291;37.520;15.106;2023-03-04T00:44:33;6.47;;;3.03;;
54555;SDS011;57291;37.520;15.106;2023-03-04T00:47:00;4.57;;;2.63;;
54555;SDS011;57291;37.520;15.106;2023-03-04T00:49:27;8.10;;;2.80;;
54555;SDS011;57291;37.520;15.106;2023-03-04T00:51:55;7.20;;;2.90;;
54555;SDS011;57291;37.520;15.106;2023-03-04T00:54:22;7.40;;;3.17;;
54555;SDS011;57291;37.520;15.106;2023-03-04T00:56:49;5.25;;;2.72;;
54555;SDS011;57291;37.520;15.106;2023-03-04T00:59:16;5.68;;;2.70;;
54555;SDS011;57291;37.520;15.106;2023-03-04T01:01:43;5.30;;;2.72;;
54555;SDS011;57291;37.520;15.106;2023-03-04T01:04:11;7.15;;;2.67;;
54555;SDS011;57291;37.520;15.106;2023-03-04T01:06:38;3.65;;;2.15;;
54555;SDS011;57291;37.520;15.106;2023-03-04T01:09:05;6.97;;;2.50;;
54555;SDS011;57291;37.520;15.106;2023-03-04T01:11:32;6.22;;;2.63;;
54555;SDS011;57291;37.520;15.106;2023-03-04T01:14:00;4.95;;;2.83;;
54555;SDS011;57291;37.520;15.106;2023-03-04T01:16:27;4.80;;;2.53;;
54555;SDS011;57291;37.520;15.106;2023-03-04T01:18:54;4.75;;;2.30;;
54555;SDS011;57291;37.520;15.106;2023-03-04T01:21:21;5.18;;;2.78;;
54555;SDS011;57291;37.520;15.106;2023-03-04T01:23:49;4.65;;;2.65;;
54555;SDS011;57291;37.520;15.106;2023-03-04T01:26:16;5.10;;;2.65;;
54555;SDS011;57291;37.520;15.106;2023-03-04T01:28:46;4.88;;;2.92;;
54555;SDS011;57291;37.520;15.106;2023-03-04T01:31:13;7.40;;;3.15;;
54555;SDS011;57291;37.520;15.106;2023-03-04T01:33:40;6.78;;;3.00;;
54555;SDS011;57291;37.520;15.106;2023-03-04T01:36:08;6.95;;;2.42;;
54555;SDS011;57291;37.520;15.106;2023-03-04T01:38:36;5.25;;;2.45;;
54555;SDS011;57291;37.520;15.106;2023-03-04T01:41:03;4.28;;;2.30;;
54555;SDS011;57291;37.520;15.106;2023-03-04T01:43:30;6.53;;;2.55;;
54555;SDS011;57291;37.520;15.106;2023-03-04T01:45:58;4.97;;;2.35;;
54555;SDS011;57291;37.520;15.106;2023-03-04T01:48:27;4.28;;;2.40;;
54555;SDS011;57291;37.520;15.106;2023-03-04T01:51:06;4.30;;;2.15;;
54555;SDS011;57291;37.520;15.106;2023-03-04T01:53:41;3.22;;;2.20;;
54555;SDS011;57291;37.520;15.106;2023-03-04T01:59:10;3.95;;;1.85;;
54555;SDS011;57291;37.520;15.106;2023-03-04T02:01:43;7.25;;;2.40;;
54555;SDS011;57291;37.520;15.106;2023-03-04T02:06:43;3.00;;;1.92;;
54555;SDS011;57291;37.520;15.106;2023-03-04T02:09:14;3.15;;;2.13;;
54555;SDS011;57291;37.520;15.106;2023-03-04T02:11:43;2.92;;;1.90;;
54555;SDS011;57291;37.520;15.106;2023-03-04T02:14:12;4.13;;;2.17;;
54555;SDS011;57291;37.520;15.106;2023-03-04T02:16:41;5.82;;;2.00;;
54555;SDS011;57291;37.520;15.106;2023-03-04T02:19:20;3.13;;;1.73;;
54555;SDS011;57291;37.520;15.106;2023-03-04T02:21:49;5.43;;;2.00;;
54555;SDS011;57291;37.520;15.106;2023-03-04T02:26:59;3.53;;;1.85;;
54555;SDS011;57291;37.520;15.106;2023-03-04T02:29:27;4.45;;;1.85;;
54555;SDS011;57291;37.520;15.106;2023-03-04T02:31:55;3.45;;;1.60;;
54555;SDS011;57291;37.520;15.106;2023-03-04T02:34:24;3.38;;;1.63;;
54555;SDS011;57291;37.520;15.106;2023-03-04T02:36:54;2.20;;;1.67;;
54555;SDS011;57291;37.520;15.106;2023-03-04T02:39:33;3.47;;;1.77;;
54555;SDS011;57291;37.520;15.106;2023-03-04T02:42:02;4.40;;;1.60;;
54555;SDS011;57291;37.520;15.106;2023-03-04T02:44:32;3.88;;;1.73;;
54555;SDS011;57291;37.520;15.106;2023-03-04T02:47:02;5.13;;;2.10;;
54555;SDS011;57291;37.520;15.106;2023-03-04T02:49:31;3.55;;;1.65;;
54555;SDS011;57291;37.520;15.106;2023-03-04T02:52:03;3.95;;;2.25;;
54555;SDS011;57291;37.520;15.106;2023-03-04T02:54:44;5.55;;;2.30;;
54555;SDS011;57291;37.520;15.106;2023-03-04T02:57:12;5.03;;;2.63;;
54555;SDS011;57291;37.520;15.106;2023-03-04T02:59:43;6.88;;;2.85;;
54555;SDS011;57291;37.520;15.106;2023-03-04T03:02:15;5.97;;;3.47;;
54555;SDS011;57291;37.520;15.106;2023-03-04T03:04:42;7.00;;;3.50;;
54555;SDS011;57291;37.520;15.106;2023-03-04T03:07:13;8.07;;;3.42;;
54555;SDS011;57291;37.520;15.106;2023-03-04T03:09:41;5.32;;;3.00;;
54555;SDS011;57291;37.520;15.106;2023-03-04T03:12:08;5.65;;;3.25;;
54555;SDS011;57291;37.520;15.106;2023-03-04T03:14:36;8.52;;;3.35;;
54555;SDS011;57291;37.520;15.106;2023-03-04T03:17:08;8.25;;;3.60;;
54555;SDS011;57291;37.520;15.106;2023-03-04T03:19:36;10.65;;;4.07;;
54555;SDS011;57291;37.520;15.106;2023-03-04T03:22:05;9.88;;;3.70;;
54555;SDS011;57291;37.520;15.106;2023-03-04T03:24:33;9.00;;;4.15;;
54555;SDS011;57291;37.520;15.106;2023-03-04T03:27:01;8.20;;;4.13;;
54555;SDS011;57291;37.520;15.106;2023-03-04T03:29:29;10.50;;;4.47;;
54555;SDS011;57291;37.520;15.106;2023-03-04T03:31:57;9.55;;;4.22;;
54555;SDS011;57291;37.520;15.106;2023-03-04T03:34:24;9.48;;;3.78;;
54555;SDS011;57291;37.520;15.106;2023-03-04T03:36:52;8.57;;;5.32;;
54555;SDS011;57291;37.520;15.106;2023-03-04T03:39:19;8.05;;;4.78;;
54555;SDS011;57291;37.520;15.106;2023-03-04T03:41:46;6.95;;;4.38;;
54555;SDS011;57291;37.520;15.106;2023-03-04T03:44:13;9.90;;;5.22;;
54555;SDS011;57291;37.520;15.106;2023-03-04T03:46:41;6.05;;;3.85;;
54555;SDS011;57291;37.520;15.106;2023-03-04T03:49:08;6.40;;;3.17;;
54555;SDS011;57291;37.520;15.106;2023-03-04T03:51:35;8.55;;;3.35;;
54555;SDS011;57291;37.520;15.106;2023-03-04T03:54:02;5.03;;;2.67;;
54555;SDS011;57291;37.520;15.106;2023-03-04T03:56:29;5.05;;;2.63;;
54555;SDS011;57291;37.520;15.106;2023-03-04T03:58:57;4.60;;;2.42;;
54555;SDS011;57291;37.520;15.106;2023-03-04T04:01:24;3.63;;;2.10;;
54555;SDS011;57291;37.520;15.106;2023-03-04T04:03:51;3.83;;;2.20;;
54555;SDS011;57291;37.520;15.106;2023-03-04T04:06:18;3.50;;;2.03;;
54555;SDS011;57291;37.520;15.106;2023-03-04T04:08:46;3.38;;;1.70;;
54555;SDS011;57291;37.520;15.106;2023-03-04T04:11:13;4.03;;;1.60;;
54555;SDS011;57291;37.520;15.106;2023-03-04T04:13:40;2.10;;;1.50;;
54555;SDS011;57291;37.520;15.106;2023-03-04T04:16:08;3.33;;;1.60;;
54555;SDS011;57291;37.520;15.106;2023-03-04T04:18:36;4.43;;;2.05;;
54555;SDS011;57291;37.520;15.106;2023-03-04T04:21:04;3.08;;;1.90;;
54555;SDS011;57291;37.520;15.106;2023-03-04T04:23:32;3.97;;;1.95;;
54555;SDS011;57291;37.520;15.106;2023-03-04T04:25:59;3.88;;;2.45;;
54555;SDS011;57291;37.520;15.106;2023-03-04T04:28:26;2.72;;;1.70;;
54555;SDS011;57291;37.520;15.106;2023-03-04T04:30:54;2.47;;;1.63;;
54555;SDS011;57291;37.520;15.106;2023-03-04T04:33:23;2.92;;;1.50;;
54555;SDS011;57291;37.520;15.106;2023-03-04T04:35:50;3.47;;;1.38;;
54555;SDS011;57291;37.520;15.106;2023-03-04T04:38:18;3.95;;;1.88;;
54555;SDS011;57291;37.520;15.106;2023-03-04T04:40:45;5.15;;;2.00;;
54555;SDS011;57291;37.520;15.106;2023-03-04T04:43:12;4.57;;;2.25;;
54555;SDS011;57291;37.520;15.106;2023-03-04T04:45:40;5.18;;;2.28;;
54555;SDS011;57291;37.520;15.106;2023-03-04T04:48:07;3.50;;;1.77;;
54555;SDS011;57291;37.520;15.106;2023-03-04T04:50:34;3.17;;;1.98;;
54555;SDS011;57291;37.520;15.106;2023-03-04T04:53:02;3.30;;;1.90;;
54555;SDS011;57291;37.520;15.106;2023-03-04T04:55:29;2.40;;;1.80;;
54555;SDS011;57291;37.520;15.106;2023-03-04T04:57:56;3.15;;;2.00;;
54555;SDS011;57291;37.520;15.106;2023-03-04T05:00:23;3.40;;;1.95;;
54555;SDS011;57291;37.520;15.106;2023-03-04T05:02:51;3.35;;;1.80;;
54555;SDS011;57291;37.520;15.106;2023-03-04T05:05:18;3.17;;;1.85;;
54555;SDS011;57291;37.520;15.106;2023-03-04T05:07:45;3.15;;;1.90;;
54555;SDS011;57291;37.520;15.106;2023-03-04T05:10:12;2.83;;;2.10;;
54555;SDS011;57291;37.520;15.106;2023-03-04T05:12:39;3.83;;;2.72;;
54555;SDS011;57291;37.520;15.106;2023-03-04T05:15:07;4.55;;;2.35;;
54555;SDS011;57291;37.520;15.106;2023-03-04T05:17:34;2.83;;;2.10;;
54555;SDS011;57291;37.520;15.106;2023-03-04T05:20:01;2.97;;;2.20;;
54555;SDS011;57291;37.520;15.106;2023-03-04T05:22:29;3.75;;;2.50;;
54555;SDS011;57291;37.520;15.106;2023-03-04T05:24:57;3.63;;;2.17;;
54555;SDS011;57291;37.520;15.106;2023-03-04T05:27:24;4.75;;;2.95;;
54555;SDS011;57291;37.520;15.106;2023-03-04T05:29:51;5.50;;;2.83;;
54555;SDS011;57291;37.520;15.106;2023-03-04T05:32:19;5.40;;;3.40;;
54555;SDS011;57291;37.520;15.106;2023-03-04T05:34:47;5.05;;;2.70;;
54555;SDS011;57291;37.520;15.106;2023-03-04T05:37:14;3.92;;;2.38;;
54555;SDS011;57291;37.520;15.106;2023-03-04T05:39:41;4.50;;;2.25;;
54555;SDS011;57291;37.520;15.106;2023-03-04T05:42:08;4.68;;;1.98;;
54555;SDS011;57291;37.520;15.106;2023-03-04T05:44:36;3.17;;;1.83;;
54555;SDS011;57291;37.520;15.106;2023-03-04T05:47:03;4.85;;;1.77;;
54555;SDS011;57291;37.520;15.106;2023-03-04T05:49:30;4.07;;;2.10;;
54555;SDS011;57291;37.520;15.106;2023-03-04T05:51:57;3.22;;;1.70;;
54555;SDS011;57291;37.520;15.106;2023-03-04T05:54:24;3.60;;;1.42;;
54555;SDS011;57291;37.520;15.106;2023-03-04T05:56:52;3.17;;;1.42;;
54555;SDS011;57291;37.520;15.106;2023-03-04T05:59:20;2.70;;;1.40;;
54555;SDS011;57291;37.520;15.106;2023-03-04T06:01:47;2.88;;;1.25;;
54555;SDS011;57291;37.520;15.106;2023-03-04T06:04:15;2.53;;;1.40;;
54555;SDS011;57291;37.520;15.106;2023-03-04T06:06:42;2.28;;;1.30;;
54555;SDS011;57291;37.520;15.106;2023-03-04T06:09:09;3.17;;;1.58;;
54555;SDS011;57291;37.520;15.106;2023-03-04T06:11:36;2.88;;;1.77;;
54555;SDS011;57291;37.520;15.106;2023-03-04T06:14:04;1.80;;;1.30;;
54555;SDS011;57291;37.520;15.106;2023-03-04T06:16:31;2.97;;;1.58;;
54555;SDS011;57291;37.520;15.106;2023-03-04T06:18:58;2.60;;;1.40;;
54555;SDS011;57291;37.520;15.106;2023-03-04T06:21:26;2.63;;;1.55;;
54555;SDS011;57291;37.520;15.106;2023-03-04T06:23:53;3.70;;;1.88;;
54555;SDS011;57291;37.520;15.106;2023-03-04T06:26:20;3.88;;;1.60;;
54555;SDS011;57291;37.520;15.106;2023-03-04T06:28:47;3.13;;;1.70;;
54555;SDS011;57291;37.520;15.106;2023-03-04T06:31:15;3.63;;;1.48;;
54555;SDS011;57291;37.520;15.106;2023-03-04T06:33:43;2.20;;;1.10;;
54555;SDS011;57291;37.520;15.106;2023-03-04T06:36:10;0.88;;;0.80;;
54555;SDS011;57291;37.520;15.106;2023-03-04T06:38:37;2.17;;;0.90;;
54555;SDS011;57291;37.520;15.106;2023-03-04T06:41:05;3.50;;;0.80;;
54555;SDS011;57291;37.520;15.106;2023-03-04T06:43:37;3.10;;;0.80;;
54555;SDS011;57291;37.520;15.106;2023-03-04T06:46:05;2.80;;;1.17;;
54555;SDS011;57291;37.520;15.106;2023-03-04T06:48:35;4.40;;;1.00;;
54555;SDS011;57291;37.520;15.106;2023-03-04T06:51:09;3.55;;;1.00;;
54555;SDS011;57291;37.520;15.106;2023-03-04T06:53:37;1.73;;;1.10;;
54555;SDS011;57291;37.520;15.106;2023-03-04T06:56:06;2.63;;;0.90;;
54555;SDS011;57291;37.520;15.106;2023-03-04T06:58:35;1.30;;;0.80;;
54555;SDS011;57291;37.520;15.106;2023-03-04T07:01:12;2.75;;;1.50;;
54555;SDS011;57291;37.520;15.106;2023-03-04T07:03:41;5.05;;;2.28;;
54555;SDS011;57291;37.520;15.106;2023-03-04T07:06:12;3.38;;;1.65;;
54555;SDS011;57291;37.520;15.106;2023-03-04T07:08:42;2.15;;;1.17;;
54555;SDS011;57291;37.520;15.106;2023-03-04T07:11:09;2.97;;;1.70;;
54555;SDS011;57291;37.520;15.106;2023-03-04T07:13:37;3.75;;;1.90;;
54555;SDS011;57291;37.520;15.106;2023-03-04T07:16:05;5.25;;;2.15;;
54555;SDS011;57291;37.520;15.106;2023-03-04T07:18:36;3.45;;;2.15;;
54555;SDS011;57291;37.520;15.106;2023-03-04T07:21:04;3.35;;;2.10;;
54555;SDS011;57291;37.520;15.106;2023-03-04T07:23:32;3.40;;;2.20;;
54555;SDS011;57291;37.520;15.106;2023-03-04T07:26:00;5.85;;;2.08;;
54555;SDS011;57291;37.520;15.106;2023-03-04T07:28:28;4.68;;;1.90;;
54555;SDS011;57291;37.520;15.106;2023-03-04T07:30:55;4.75;;;2.20;;
54555;SDS011;57291;37.520;15.106;2023-03-04T07:33:22;4.80;;;2.00;;
54555;SDS011;57291;37.520;15.106;2023-03-04T07:35:57;6.95;;;1.92;;
54555;SDS011;57291;37.520;15.106;2023-03-04T07:38:25;5.32;;;1.77;;
54555;SDS011;57291;37.520;15.106;2023-03-04T07:40:56;2.95;;;1.52;;
54555;SDS011;57291;37.520;15.106;2023-03-04T07:43:24;3.45;;;1.70;;
54555;SDS011;57291;37.520;15.106;2023-03-04T07:45:52;4.95;;;2.47;;
54555;SDS011;57291;37.520;15.106;2023-03-04T07:48:24;3.55;;;2.00;;
54555;SDS011;57291;37.520;15.106;2023-03-04T07:51:34;4.55;;;2.25;;
54555;SDS011;57291;37.520;15.106;2023-03-04T07:53:45;3.92;;;2.03;;
54555;SDS011;57291;37.520;15.106;2023-03-04T07:56:15;3.83;;;1.80;;
54555;SDS011;57291;37.520;15.106;2023-03-04T07:58:44;6.03;;;2.15;;
54555;SDS011;57291;37.520;15.106;2023-03-04T08:01:13;6.13;;;2.20;;
54555;SDS011;57291;37.520;15.106;2023-03-04T08:03:42;5.03;;;2.20;;
54555;SDS011;57291;37.520;15.106;2023-03-04T08:06:10;4.97;;;2.15;;
54555;SDS011;57291;37.520;15.106;2023-03-04T08:08:39;4.28;;;2.10;;
54555;SDS011;57291;37.520;15.106;2023-03-04T08:11:08;5.15;;;2.30;;
54555;SDS011;57291;37.520;15.106;2023-03-04T08:13:40;4.57;;;1.90;;
54555;SDS011;57291;37.520;15.106;2023-03-04T08:16:08;2.83;;;1.60;;
54555;SDS011;57291;37.520;15.106;2023-03-04T08:18:38;3.30;;;1.55;;
54555;SDS011;57291;37.520;15.106;2023-03-04T08:21:10;4.55;;;1.90;;
54555;SDS011;57291;37.520;15.106;2023-03-04T08:23:38;3.78;;;2.20;;
54555;SDS011;57291;37.520;15.106;2023-03-04T08:26:09;3.50;;;1.90;;
54555;SDS011;57291;37.520;15.106;2023-03-04T08:28:38;5.68;;;2.20;;
54555;SDS011;57291;37.520;15.106;2023-03-04T08:31:06;3.10;;;1.60;;
54555;SDS011;57291;37.520;15.106;2023-03-04T08:33:33;7.45;;;2.00;;
54555;SDS011;57291;37.520;15.106;2023-03-04T08:36:01;3.47;;;2.33;;
54555;SDS011;57291;37.520;15.106;2023-03-04T08:38:28;4.57;;;1.88;;
54555;SDS011;57291;37.520;15.106;2023-03-04T08:40:57;6.25;;;2.00;;
54555;SDS011;57291;37.520;15.106;2023-03-04T08:43:25;4.85;;;2.33;;
54555;SDS011;57291;37.520;15.106;2023-03-04T08:45:53;4.45;;;2.05;;
54555;SDS011;57291;37.520;15.106;2023-03-04T08:48:21;4.13;;;2.13;;
54555;SDS011;57291;37.520;15.106;2023-03-04T08:50:49;5.10;;;1.95;;
54555;SDS011;57291;37.520;15.106;2023-03-04T08:53:17;4.45;;;1.92;;
54555;SDS011;57291;37.520;15.106;2023-03-04T08:55:45;2.83;;;1.80;;
54555;SDS011;57291;37.520;15.106;2023-03-04T08:58:13;3.45;;;1.85;;
54555;SDS011;57291;37.520;15.106;2023-03-04T09:00:42;3.35;;;1.70;;
54555;SDS011;57291;37.520;15.106;2023-03-04T09:03:10;5.03;;;1.58;;
54555;SDS011;57291;37.520;15.106;2023-03-04T09:05:38;3.08;;;1.40;;
54555;SDS011;57291;37.520;15.106;2023-03-04T09:08:06;3.95;;;1.70;;
54555;SDS011;57291;37.520;15.106;2023-03-04T09:10:33;3.28;;;1.10;;
54555;SDS011;57291;37.520;15.106;2023-03-04T09:13:00;5.43;;;2.28;;
54555;SDS011;57291;37.520;15.106;2023-03-04T09:15:28;7.35;;;1.00;;
54555;SDS011;57291;37.520;15.106;2023-03-04T09:17:55;2.15;;;1.10;;
54555;SDS011;57291;37.520;15.106;2023-03-04T09:20:22;2.30;;;0.82;;
54555;SDS011;57291;37.520;15.106;2023-03-04T09:22:49;2.55;;;1.00;;
54555;SDS011;57291;37.520;15.106;2023-03-04T09:25:17;4.18;;;1.20;;
54555;SDS011;57291;37.520;15.106;2023-03-04T09:27:44;2.75;;;1.13;;
54555;SDS011;57291;37.520;15.106;2023-03-04T09:30:11;3.15;;;1.20;;
54555;SDS011;57291;37.520;15.106;2023-03-04T09:32:39;2.50;;;0.90;;
54555;SDS011;57291;37.520;15.106;2023-03-04T09:35:07;2.00;;;1.10;;
54555;SDS011;57291;37.520;15.106;2023-03-04T09:37:35;1.85;;;1.60;;
54555;SDS011;57291;37.520;15.106;2023-03-04T09:40:07;2.15;;;1.40;;
54555;SDS011;57291;37.520;15.106;2023-03-04T09:42:42;6.60;;;1.45;;
54555;SDS011;57291;37.520;15.106;2023-03-04T09:45:15;4.75;;;1.40;;
54555;SDS011;57291;37.520;15.106;2023-03-04T09:47:46;3.72;;;1.02;;
54555;SDS011;57291;37.520;15.106;2023-03-04T09:50:17;1.20;;;0.80;;
54555;SDS011;57291;37.520;15.106;2023-03-04T09:55:54;2.15;;;0.82;;
54555;SDS011;57291;37.520;15.106;2023-03-04T09:58:27;2.50;;;0.90;;
54555;SDS011;57291;37.520;15.106;2023-03-04T10:01:23;2.67;;;0.95;;
54555;SDS011;57291;37.520;15.106;2023-03-04T10:04:06;4.05;;;0.90;;
54555;SDS011;57291;37.520;15.106;2023-03-04T10:06:40;4.97;;;1.00;;
54555;SDS011;57291;37.520;15.106;2023-03-04T10:09:21;3.28;;;1.33;;
54555;SDS011;57291;37.520;15.106;2023-03-04T10:12:01;3.30;;;0.90;;
54555;SDS011;57291;37.520;15.106;2023-03-04T10:14:36;3.50;;;0.77;;
54555;SDS011;57291;37.520;15.106;2023-03-04T10:22:26;1.92;;;0.90;;
54555;SDS011;57291;37.520;15.106;2023-03-04T10:24:59;1.50;;;0.82;;
54555;SDS011;57291;37.520;15.106;2023-03-04T10:27:41;1.88;;;0.90;;
54555;SDS011;57291;37.520;15.106;2023-03-04T10:30:12;2.33;;;1.00;;
54555;SDS011;57291;37.520;15.106;2023-03-04T10:32:49;1.45;;;0.90;;
54555;SDS011;57291;37.520;15.106;2023-03-04T10:35:16;2.78;;;1.30;;
54555;SDS011;57291;37.520;15.106;2023-03-04T10:37:48;2.20;;;1.20;;
54555;SDS011;57291;37.520;15.106;2023-03-04T10:40:24;3.67;;;1.08;;
54555;SDS011;57291;37.520;15.106;2023-03-04T10:42:51;1.50;;;0.90;;
54555;SDS011;57291;37.520;15.106;2023-03-04T10:45:23;3.03;;;1.00;;
54555;SDS011;57291;37.520;15.106;2023-03-04T10:50:22;1.77;;;1.00;;
54555;SDS011;57291;37.520;15.106;2023-03-04T10:52:54;3.20;;;1.20;;
54555;SDS011;57291;37.520;15.106;2023-03-04T10:55:30;1.80;;;1.00;;
54555;SDS011;57291;37.520;15.106;2023-03-04T10:58:12;2.85;;;0.90;;
54555;SDS011;57291;37.520;15.106;2023-03-04T11:00:43;1.50;;;0.90;;
54555;SDS011;57291;37.520;15.106;2023-03-04T11:03:32;2.58;;;1.10;;
54555;SDS011;57291;37.520;15.106;2023-03-04T11:06:09;1.88;;;0.90;;
54555;SDS011;57291;37.520;15.106;2023-03-04T11:11:23;1.08;;;0.70;;
54555;SDS011;57291;37.520;15.106;2023-03-04T11:13:51;1.13;;;0.52;;
54555;SDS011;57291;37.520;15.106;2023-03-04T11:16:26;3.00;;;1.10;;
54555;SDS011;57291;37.520;15.106;2023-03-04T11:18:58;0.93;;;0.70;;
54555;SDS011;57291;37.520;15.106;2023-03-04T11:21:33;1.45;;;1.00;;
54555;SDS011;57291;37.520;15.106;2023-03-04T11:24:12;3.35;;;0.60;;
54555;SDS011;57291;37.520;15.106;2023-03-04T11:27:09;2.22;;;0.80;;
54555;SDS011;57291;37.520;15.106;2023-03-04T11:30:04;1.30;;;0.60;;
54555;SDS011;57291;37.520;15.106;2023-03-04T11:32:45;1.80;;;0.82;;
54555;SDS011;57291;37.520;15.106;2023-03-04T11:35:22;1.55;;;0.82;;
54555;SDS011;57291;37.520;15.106;2023-03-04T11:37:58;1.67;;;0.80;;
54555;SDS011;57291;37.520;15.106;2023-03-04T11:40:37;1.75;;;0.80;;
54555;SDS011;57291;37.520;15.106;2023-03-04T11:43:24;1.77;;;0.70;;
54555;SDS011;57291;37.520;15.106;2023-03-04T11:56:56;3.08;;;0.90;;
54555;SDS011;57291;37.520;15.106;2023-03-04T11:59:37;1.83;;;0.77;;
54555;SDS011;57291;37.520;15.106;2023-03-04T12:28:10;2.75;;;1.02;;
54555;SDS011;57291;37.520;15.106;2023-03-04T12:35:51;5.05;;;2.60;;
54555;SDS011;57291;37.520;15.106;2023-03-04T12:44:19;3.67;;;1.38;;
54555;SDS011;57291;37.520;15.106;2023-03-04T12:55:18;6.20;;;1.50;;
54555;SDS011;57291;37.520;15.106;2023-03-04T12:57:54;11.80;;;4.93;;
54555;SDS011;57291;37.520;15.106;2023-03-04T13:16:43;4.63;;;1.42;;
54555;SDS011;57291;37.520;15.106;2023-03-04T13:24:56;1.20;;;0.60;;
54555;SDS011;57291;37.520;15.106;2023-03-04T13:27:43;1.55;;;0.70;;
54555;SDS011;57291;37.520;15.106;2023-03-04T13:44:00;2.42;;;0.85;;
54555;SDS011;57291;37.520;15.106;2023-03-04T13:46:39;3.40;;;0.80;;
54555;SDS011;57291;37.520;15.106;2023-03-04T13:49:20;1.45;;;0.60;;
54555;SDS011;57291;37.520;15.106;2023-03-04T13:51:51;1.42;;;0.77;;
54555;SDS011;57291;37.520;15.106;2023-03-04T14:02:11;1.08;;;0.73;;
54555;SDS011;57291;37.520;15.106;2023-03-04T14:04:46;2.30;;;0.70;;
54555;SDS011;57291;37.520;15.106;2023-03-04T14:07:26;2.15;;;0.60;;
54555;SDS011;57291;37.520;15.106;2023-03-04T14:17:48;0.93;;;0.40;;
54555;SDS011;57291;37.520;15.106;2023-03-04T14:20:26;2.33;;;0.50;;
54555;SDS011;57291;37.520;15.106;2023-03-04T14:22:58;1.50;;;0.50;;
54555;SDS011;57291;37.520;15.106;2023-03-04T14:25:28;1.73;;;0.70;;
54555;SDS011;57291;37.520;15.106;2023-03-04T14:28:12;0.80;;;0.50;;
54555;SDS011;57291;37.520;15.106;2023-03-04T14:30:53;1.33;;;0.70;;
54555;SDS011;57291;37.520;15.106;2023-03-04T14:33:26;1.58;;;0.70;;
54555;SDS011;57291;37.520;15.106;2023-03-04T14:35:59;2.03;;;0.90;;
54555;SDS011;57291;37.520;15.106;2023-03-04T14:41:05;1.27;;;0.60;;
54555;SDS011;57291;37.520;15.106;2023-03-04T14:43:55;1.67;;;0.70;;
54555;SDS011;57291;37.520;15.106;2023-03-04T14:46:30;3.50;;;0.90;;
54555;SDS011;57291;37.520;15.106;2023-03-04T14:49:02;3.72;;;0.70;;
54555;SDS011;57291;37.520;15.106;2023-03-04T14:51:51;1.48;;;0.60;;
54555;SDS011;57291;37.520;15.106;2023-03-04T14:54:24;2.58;;;0.73;;
54555;SDS011;57291;37.520;15.106;2023-03-04T14:59:49;1.00;;;0.80;;
54555;SDS011;57291;37.520;15.106;2023-03-04T15:02:18;4.30;;;0.90;;
54555;SDS011;57291;37.520;15.106;2023-03-04T15:04:50;2.28;;;0.80;;
54555;SDS011;57291;37.520;15.106;2023-03-04T15:07:20;2.90;;;0.70;;
54555;SDS011;57291;37.520;15.106;2023-03-04T15:09:53;1.20;;;0.63;;
54555;SDS011;57291;37.520;15.106;2023-03-04T15:12:22;1.38;;;0.70;;
54555;SDS011;57291;37.520;15.106;2023-03-04T15:14:53;1.77;;;0.70;;
54555;SDS011;57291;37.520;15.106;2023-03-04T15:19:59;1.17;;;0.80;;
54555;SDS011;57291;37.520;15.106;2023-03-04T15:22:31;3.58;;;1.08;;
54555;SDS011;57291;37.520;15.106;2023-03-04T15:24:58;2.80;;;0.88;;
54555;SDS011;57291;37.520;15.106;2023-03-04T15:27:26;2.90;;;1.10;;
54555;SDS011;57291;37.520;15.106;2023-03-04T15:29:57;3.13;;;1.13;;
54555;SDS011;57291;37.520;15.106;2023-03-04T15:32:27;2.45;;;1.27;;
54555;SDS011;57291;37.520;15.106;2023-03-04T15:34:56;3.35;;;1.15;;
54555;SDS011;57291;37.520;15.106;2023-03-04T15:37:24;3.15;;;1.10;;
54555;SDS011;57291;37.520;15.106;2023-03-04T15:39:54;2.97;;;1.50;;
54555;SDS011;57291;37.520;15.106;2023-03-04T15:42:23;5.45;;;1.40;;
54555;SDS011;57291;37.520;15.106;2023-03-04T15:44:51;5.28;;;1.60;;
54555;SDS011;57291;37.520;15.106;2023-03-04T15:47:18;4.13;;;1.20;;
54555;SDS011;57291;37.520;15.106;2023-03-04T15:49:45;4.32;;;1.80;;
54555;SDS011;57291;37.520;15.106;2023-03-04T15:52:16;3.15;;;1.38;;
54555;SDS011;57291;37.520;15.106;2023-03-04T15:54:47;2.45;;;1.30;;
54555;SDS011;57291;37.520;15.106;2023-03-04T15:57:18;4.30;;;1.55;;
54555;SDS011;57291;37.520;15.106;2023-03-04T15:59:51;2.60;;;1.35;;
54555;SDS011;57291;37.520;15.106;2023-03-04T16:02:20;2.45;;;1.17;;
54555;SDS011;57291;37.520;15.106;2023-03-04T16:04:49;3.30;;;0.93;;
54555;SDS011;57291;37.520;15.106;2023-03-04T16:07:17;2.38;;;1.10;;
54555;SDS011;57291;37.520;15.106;2023-03-04T16:09:47;3.13;;;1.15;;
54555;SDS011;57291;37.520;15.106;2023-03-04T16:12:21;1.58;;;1.10;;
54555;SDS011;57291;37.520;15.106;2023-03-04T16:14:50;2.30;;;0.88;;
54555;SDS011;57291;37.520;15.106;2023-03-04T16:17:18;2.78;;;0.80;;
54555;SDS011;57291;37.520;15.106;2023-03-04T16:19:45;1.58;;;0.90;;
54555;SDS011;57291;37.520;15.106;2023-03-04T16:22:17;1.60;;;0.82;;
54555;SDS011;57291;37.520;15.106;2023-03-04T16:24:50;2.20;;;1.00;;
54555;SDS011;57291;37.520;15.106;2023-03-04T16:27:20;1.80;;;0.90;;
54555;SDS011;57291;37.520;15.106;2023-03-04T16:29:48;1.70;;;0.90;;
54555;SDS011;57291;37.520;15.106;2023-03-04T16:32:16;3.08;;;1.25;;
54555;SDS011;57291;37.520;15.106;2023-03-04T16:34:44;1.80;;;0.90;;
54555;SDS011;57291;37.520;15.106;2023-03-04T16:37:12;3.50;;;1.35;;
54555;SDS011;57291;37.520;15.106;2023-03-04T16:39:43;2.60;;;1.30;;
54555;SDS011;57291;37.520;15.106;2023-03-04T16:42:15;3.00;;;1.60;;
54555;SDS011;57291;37.520;15.106;2023-03-04T16:44:45;2.65;;;1.80;;
54555;SDS011;57291;37.520;15.106;2023-03-04T16:47:12;3.35;;;1.80;;
54555;SDS011;57291;37.520;15.106;2023-03-04T16:49:40;3.22;;;1.80;;
54555;SDS011;57291;37.520;15.106;2023-03-04T16:52:13;4.43;;;2.20;;
54555;SDS011;57291;37.520;15.106;2023-03-04T16:54:53;5.38;;;2.00;;
54555;SDS011;57291;37.520;15.106;2023-03-04T16:57:20;3.28;;;2.13;;
54555;SDS011;57291;37.520;15.106;2023-03-04T16:59:48;4.05;;;1.75;;
54555;SDS011;57291;37.520;15.106;2023-03-04T17:02:17;3.30;;;1.83;;
54555;SDS011;57291;37.520;15.106;2023-03-04T17:04:47;3.15;;;1.88;;
54555;SDS011;57291;37.520;15.106;2023-03-04T17:07:15;3.15;;;2.15;;